AU-0013 weather

Between Lakes Private Airstrip
Western Australia, Australia

Public forecast

Using degrees Celsius for public forecast. Weather courtesy of forecast.io.

Closest aviation weather report (METAR) to Between Lakes Private Airstrip

Closest report is Perth Jandakot Airport, 46.8 nm (86.7 km) NNE. Retrieved 2020/01/28 19:30 UTC (0 seconds ago):

YPJT 281930Z AUTO 21006KT 9999 // NCD 19/17 Q1009 RF000/0000

Closest aviation forecast (TAF) to Between Lakes Private Airstrip

Forecast is more than 6 hours old.

Closest forecast is Perth Jandakot Airport, 46.8 nm (86.7 km) NNE. Retrieved 2020/01/28 12:00 UTC (7 hours ago):

TAF YPJT 281129Z 2812/2906 23016KT 9999 FU NSC FM281300 21008KT 9999 FU BKN014 FM281600 19008KT 9999 NSW SCT014 FM282300 20010KT 9999 FEW025 FM290300 25014KT CAVOK